sensor_id;sensor_type;location;lat;lon;timestamp;temperature;humidity
7378;DHT22;3730;50.856;12.776;2023-07-08T00:51:55;21.00;1.00
7378;DHT22;3730;50.856;12.776;2023-07-08T00:54:21;21.00;1.00
7378;DHT22;3730;50.856;12.776;2023-07-08T00:59:24;21.20;1.00
7378;DHT22;3730;50.856;12.776;2023-07-08T01:01:50;21.10;1.00
7378;DHT22;3730;50.856;12.776;2023-07-08T01:04:24;20.90;1.00
7378;DHT22;3730;50.856;12.776;2023-07-08T01:06:54;21.10;1.00
7378;DHT22;3730;50.856;12.776;2023-07-08T01:09:26;21.30;1.00
7378;DHT22;3730;50.856;12.776;2023-07-08T01:11:55;21.10;1.00
7378;DHT22;3730;50.856;12.776;2023-07-08T01:14:26;21.10;1.00
7378;DHT22;3730;50.856;12.776;2023-07-08T01:16:52;21.00;1.00
7378;DHT22;3730;50.856;12.776;2023-07-08T01:19:21;21.10;1.00
7378;DHT22;3730;50.856;12.776;2023-07-08T01:24:26;21.20;1.00
7378;DHT22;3730;50.856;12.776;2023-07-08T01:26:53;21.30;1.00
7378;DHT22;3730;50.856;12.776;2023-07-08T01:29:19;21.20;1.00
7378;DHT22;3730;50.856;12.776;2023-07-08T01:31:45;21.20;1.00
7378;DHT22;3730;50.856;12.776;2023-07-08T01:34:15;21.20;1.00
7378;DHT22;3730;50.856;12.776;2023-07-08T01:36:44;21.00;1.00
7378;DHT22;3730;50.856;12.776;2023-07-08T01:39:17;21.00;1.00
7378;DHT22;3730;50.856;12.776;2023-07-08T01:41:44;21.40;1.00
7378;DHT22;3730;50.856;12.776;2023-07-08T01:44:27;21.30;1.00
7378;DHT22;3730;50.856;12.776;2023-07-08T01:46:56;21.30;1.00
7378;DHT22;3730;50.856;12.776;2023-07-08T01:49:23;21.20;1.00
7378;DHT22;3730;50.856;12.776;2023-07-08T01:51:49;21.30;1.00
7378;DHT22;3730;50.856;12.776;2023-07-08T01:54:16;21.30;1.00
7378;DHT22;3730;50.856;12.776;2023-07-08T01:56:41;21.20;1.00
7378;DHT22;3730;50.856;12.776;2023-07-08T01:59:07;21.30;1.00
7378;DHT22;3730;50.856;12.776;2023-07-08T02:01:33;21.20;1.00
7378;DHT22;3730;50.856;12.776;2023-07-08T02:03:58;21.30;1.00
7378;DHT22;3730;50.856;12.776;2023-07-08T02:06:24;21.30;1.00
7378;DHT22;3730;50.856;12.776;2023-07-08T02:08:49;21.20;1.00
7378;DHT22;3730;50.856;12.776;2023-07-08T02:11:16;21.30;1.00
7378;DHT22;3730;50.856;12.776;2023-07-08T02:13:42;21.20;1.00
7378;DHT22;3730;50.856;12.776;2023-07-08T02:16:07;21.30;1.00
7378;DHT22;3730;50.856;12.776;2023-07-08T02:20:59;21.20;1.00
7378;DHT22;3730;50.856;12.776;2023-07-08T02:23:25;21.30;1.00
7378;DHT22;3730;50.856;12.776;2023-07-08T02:25:52;21.30;1.00
7378;DHT22;3730;50.856;12.776;2023-07-08T02:28:18;21.10;1.00
7378;DHT22;3730;50.856;12.776;2023-07-08T02:30:44;21.20;1.00
7378;DHT22;3730;50.856;12.776;2023-07-08T02:33:11;21.20;1.00
7378;DHT22;3730;50.856;12.776;2023-07-08T02:35:37;21.20;1.00
7378;DHT22;3730;50.856;12.776;2023-07-08T02:38:02;21.20;1.00
7378;DHT22;3730;50.856;12.776;2023-07-08T02:40:28;21.20;1.00
7378;DHT22;3730;50.856;12.776;2023-07-08T02:42:54;21.20;1.00
7378;DHT22;3730;50.856;12.776;2023-07-08T02:45:21;21.30;1.00
7378;DHT22;3730;50.856;12.776;2023-07-08T02:47:46;21.20;1.00
7378;DHT22;3730;50.856;12.776;2023-07-08T02:50:12;21.10;1.00
7378;DHT22;3730;50.856;12.776;2023-07-08T02:52:38;20.90;1.00
7378;DHT22;3730;50.856;12.776;2023-07-08T02:55:04;21.10;1.00
7378;DHT22;3730;50.856;12.776;2023-07-08T02:57:30;21.00;1.00
7378;DHT22;3730;50.856;12.776;2023-07-08T02:59:55;21.20;1.00
7378;DHT22;3730;50.856;12.776;2023-07-08T03:02:22;21.10;1.00
7378;DHT22;3730;50.856;12.776;2023-07-08T03:04:48;21.10;1.00
7378;DHT22;3730;50.856;12.776;2023-07-08T03:07:15;21.10;1.00
7378;DHT22;3730;50.856;12.776;2023-07-08T03:09:41;21.00;1.00
7378;DHT22;3730;50.856;12.776;2023-07-08T03:12:08;21.10;1.00
7378;DHT22;3730;50.856;12.776;2023-07-08T03:14:34;21.10;1.00
7378;DHT22;3730;50.856;12.776;2023-07-08T03:17:00;21.10;1.00
7378;DHT22;3730;50.856;12.776;2023-07-08T03:19:25;21.10;1.00
7378;DHT22;3730;50.856;12.776;2023-07-08T03:21:51;21.10;1.00
7378;DHT22;3730;50.856;12.776;2023-07-08T03:24:17;21.00;1.00
7378;DHT22;3730;50.856;12.776;2023-07-08T03:26:44;21.10;1.00
7378;DHT22;3730;50.856;12.776;2023-07-08T03:29:17;20.90;1.00
7378;DHT22;3730;50.856;12.776;2023-07-08T03:31:44;20.90;1.00
7378;DHT22;3730;50.856;12.776;2023-07-08T03:34:11;21.10;1.00
7378;DHT22;3730;50.856;12.776;2023-07-08T03:36:46;21.10;1.00
7378;DHT22;3730;50.856;12.776;2023-07-08T03:39:18;21.30;1.00
7378;DHT22;3730;50.856;12.776;2023-07-08T03:41:45;21.00;1.00
7378;DHT22;3730;50.856;12.776;2023-07-08T03:44:12;21.10;1.00
7378;DHT22;3730;50.856;12.776;2023-07-08T03:46:38;21.10;1.00
7378;DHT22;3730;50.856;12.776;2023-07-08T03:49:05;21.20;1.00
7378;DHT22;3730;50.856;12.776;2023-07-08T03:51:33;21.10;1.00
7378;DHT22;3730;50.856;12.776;2023-07-08T03:54:00;21.10;1.00
7378;DHT22;3730;50.856;12.776;2023-07-08T03:56:25;21.10;1.00
7378;DHT22;3730;50.856;12.776;2023-07-08T03:58:51;21.10;1.00
7378;DHT22;3730;50.856;12.776;2023-07-08T04:01:18;21.10;1.00
7378;DHT22;3730;50.856;12.776;2023-07-08T04:03:46;21.10;1.00
7378;DHT22;3730;50.856;12.776;2023-07-08T04:06:12;21.20;1.00
7378;DHT22;3730;50.856;12.776;2023-07-08T04:08:37;21.20;1.00
7378;DHT22;3730;50.856;12.776;2023-07-08T04:11:03;21.30;1.00
7378;DHT22;3730;50.856;12.776;2023-07-08T04:13:29;21.20;1.00
7378;DHT22;3730;50.856;12.776;2023-07-08T04:16:03;21.20;1.00
7378;DHT22;3730;50.856;12.776;2023-07-08T04:18:29;21.10;1.00
7378;DHT22;3730;50.856;12.776;2023-07-08T04:20:55;21.40;1.00
7378;DHT22;3730;50.856;12.776;2023-07-08T04:23:24;21.30;1.00
7378;DHT22;3730;50.856;12.776;2023-07-08T04:25:52;21.30;1.00
7378;DHT22;3730;50.856;12.776;2023-07-08T04:28:19;21.30;1.00
7378;DHT22;3730;50.856;12.776;2023-07-08T04:30:45;21.30;1.00
7378;DHT22;3730;50.856;12.776;2023-07-08T04:33:12;21.50;1.00
7378;DHT22;3730;50.856;12.776;2023-07-08T04:35:40;21.20;1.00
7378;DHT22;3730;50.856;12.776;2023-07-08T04:38:09;21.40;1.00
7378;DHT22;3730;50.856;12.776;2023-07-08T04:40:37;21.30;1.00
7378;DHT22;3730;50.856;12.776;2023-07-08T04:43:08;21.40;1.00
7378;DHT22;3730;50.856;12.776;2023-07-08T04:45:36;21.40;1.00
7378;DHT22;3730;50.856;12.776;2023-07-08T04:48:03;21.50;1.00
7378;DHT22;3730;50.856;12.776;2023-07-08T04:50:47;21.50;1.00
7378;DHT22;3730;50.856;12.776;2023-07-08T04:53:14;21.20;1.00
7378;DHT22;3730;50.856;12.776;2023-07-08T04:55:42;21.50;1.00
7378;DHT22;3730;50.856;12.776;2023-07-08T04:58:08;21.50;1.00
7378;DHT22;3730;50.856;12.776;2023-07-08T05:00:34;21.50;1.00
7378;DHT22;3730;50.856;12.776;2023-07-08T05:03:00;21.70;1.00
7378;DHT22;3730;50.856;12.776;2023-07-08T05:05:25;21.60;1.00
7378;DHT22;3730;50.856;12.776;2023-07-08T05:07:51;21.70;1.00
7378;DHT22;3730;50.856;12.776;2023-07-08T05:10:18;21.70;1.00
7378;DHT22;3730;50.856;12.776;2023-07-08T05:12:44;21.80;1.00
7378;DHT22;3730;50.856;12.776;2023-07-08T05:15:10;21.70;1.00
7378;DHT22;3730;50.856;12.776;2023-07-08T05:17:38;21.60;1.00
7378;DHT22;3730;50.856;12.776;2023-07-08T05:20:06;21.70;1.00
7378;DHT22;3730;50.856;12.776;2023-07-08T05:22:33;21.80;1.00
7378;DHT22;3730;50.856;12.776;2023-07-08T05:24:59;21.70;1.00
7378;DHT22;3730;50.856;12.776;2023-07-08T05:27:26;21.70;1.00
7378;DHT22;3730;50.856;12.776;2023-07-08T05:29:51;21.70;1.00
7378;DHT22;3730;50.856;12.776;2023-07-08T05:32:17;21.80;1.00
7378;DHT22;3730;50.856;12.776;2023-07-08T05:34:44;21.90;1.00
7378;DHT22;3730;50.856;12.776;2023-07-08T05:37:10;21.80;1.00
7378;DHT22;3730;50.856;12.776;2023-07-08T05:39:36;21.90;1.00
7378;DHT22;3730;50.856;12.776;2023-07-08T05:42:02;21.70;1.00
7378;DHT22;3730;50.856;12.776;2023-07-08T05:44:28;22.00;1.00
7378;DHT22;3730;50.856;12.776;2023-07-08T05:46:54;22.10;1.00
7378;DHT22;3730;50.856;12.776;2023-07-08T06:01:31;22.10;1.00
7378;DHT22;3730;50.856;12.776;2023-07-08T07:07:26;22.70;1.00
7378;DHT22;3730;50.856;12.776;2023-07-08T07:09:51;23.00;1.00
7378;DHT22;3730;50.856;12.776;2023-07-08T07:12:17;23.00;1.00
7378;DHT22;3730;50.856;12.776;2023-07-08T07:19:35;23.10;1.00
7378;DHT22;3730;50.856;12.776;2023-07-08T07:22:01;23.20;1.00
7378;DHT22;3730;50.856;12.776;2023-07-08T07:24:27;23.20;1.00
7378;DHT22;3730;50.856;12.776;2023-07-08T07:26:53;26.80;1.00
7378;DHT22;3730;50.856;12.776;2023-07-08T07:29:21;23.30;1.00
7378;DHT22;3730;50.856;12.776;2023-07-08T07:31:47;23.30;1.00
7378;DHT22;3730;50.856;12.776;2023-07-08T07:34:13;23.40;1.00
7378;DHT22;3730;50.856;12.776;2023-07-08T07:36:39;23.40;1.00
7378;DHT22;3730;50.856;12.776;2023-07-08T07:39:05;23.40;1.00
7378;DHT22;3730;50.856;12.776;2023-07-08T07:41:31;23.50;1.00
7378;DHT22;3730;50.856;12.776;2023-07-08T07:43:57;23.50;1.00
7378;DHT22;3730;50.856;12.776;2023-07-08T07:46:22;23.60;1.00
7378;DHT22;3730;50.856;12.776;2023-07-08T07:48:48;23.60;1.00
7378;DHT22;3730;50.856;12.776;2023-07-08T07:51:14;23.70;1.00
7378;DHT22;3730;50.856;12.776;2023-07-08T07:58:32;23.70;1.00
7378;DHT22;3730;50.856;12.776;2023-07-08T08:13:09;23.90;1.00
7378;DHT22;3730;50.856;12.776;2023-07-08T08:15:35;24.20;1.00
7378;DHT22;3730;50.856;12.776;2023-07-08T08:18:01;24.30;1.00
7378;DHT22;3730;50.856;12.776;2023-07-08T08:20:28;24.30;1.00
7378;DHT22;3730;50.856;12.776;2023-07-08T08:22:54;24.40;1.00
7378;DHT22;3730;50.856;12.776;2023-07-08T08:25:21;24.50;1.00
7378;DHT22;3730;50.856;12.776;2023-07-08T08:27:47;24.50;1.00
7378;DHT22;3730;50.856;12.776;2023-07-08T08:30:13;24.60;1.00
7378;DHT22;3730;50.856;12.776;2023-07-08T08:32:38;24.60;1.00
7378;DHT22;3730;50.856;12.776;2023-07-08T08:35:04;24.70;1.00
7378;DHT22;3730;50.856;12.776;2023-07-08T08:37:30;24.80;1.00
7378;DHT22;3730;50.856;12.776;2023-07-08T08:39:56;24.90;1.00
7378;DHT22;3730;50.856;12.776;2023-07-08T08:42:40;24.90;1.00
7378;DHT22;3730;50.856;12.776;2023-07-08T08:45:11;25.00;1.00
7378;DHT22;3730;50.856;12.776;2023-07-08T08:47:41;25.10;1.00
7378;DHT22;3730;50.856;12.776;2023-07-08T09:00:54;25.20;1.00
7378;DHT22;3730;50.856;12.776;2023-07-08T09:03:49;25.40;1.00
7378;DHT22;3730;50.856;12.776;2023-07-08T09:08:44;25.60;1.00
7378;DHT22;3730;50.856;12.776;2023-07-08T09:13:59;25.80;1.00
7378;DHT22;3730;50.856;12.776;2023-07-08T09:29:09;25.80;1.00
7378;DHT22;3730;50.856;12.776;2023-07-08T09:31:38;26.20;1.00
7378;DHT22;3730;50.856;12.776;2023-07-08T10:06:34;26.20;1.00
7378;DHT22;3730;50.856;12.776;2023-07-08T10:09:08;26.90;1.00
7378;DHT22;3730;50.856;12.776;2023-07-08T12:19:24;26.90;1.00
7378;DHT22;3730;50.856;12.776;2023-07-08T12:21:51;30.00;1.00
7378;DHT22;3730;50.856;12.776;2023-07-08T12:24:17;30.00;1.00
7378;DHT22;3730;50.856;12.776;2023-07-08T12:26:43;30.20;1.00
7378;DHT22;3730;50.856;12.776;2023-07-08T12:36:36;30.30;1.00
7378;DHT22;3730;50.856;12.776;2023-07-08T12:39:02;30.50;1.00
7378;DHT22;3730;50.856;12.776;2023-07-08T12:41:35;30.60;1.00
7378;DHT22;3730;50.856;12.776;2023-07-08T12:44:01;30.60;1.00
7378;DHT22;3730;50.856;12.776;2023-07-08T12:46:28;30.60;1.00
7378;DHT22;3730;50.856;12.776;2023-07-08T12:48:54;30.70;1.00
7378;DHT22;3730;50.856;12.776;2023-07-08T12:51:23;30.70;1.00
7378;DHT22;3730;50.856;12.776;2023-07-08T12:53:50;30.80;1.00
7378;DHT22;3730;50.856;12.776;2023-07-08T12:56:17;31.00;1.00
7378;DHT22;3730;50.856;12.776;2023-07-08T12:58:47;31.10;1.00
7378;DHT22;3730;50.856;12.776;2023-07-08T13:01:19;31.20;1.00
7378;DHT22;3730;50.856;12.776;2023-07-08T13:03:50;31.40;1.00
7378;DHT22;3730;50.856;12.776;2023-07-08T13:06:17;31.60;1.00
7378;DHT22;3730;50.856;12.776;2023-07-08T13:08:45;31.60;1.00
7378;DHT22;3730;50.856;12.776;2023-07-08T13:11:14;31.70;1.00
7378;DHT22;3730;50.856;12.776;2023-07-08T14:35:39;31.80;1.00
7378;DHT22;3730;50.856;12.776;2023-07-08T14:38:10;32.10;1.00
7378;DHT22;3730;50.856;12.776;2023-07-08T14:40:38;32.30;1.00
7378;DHT22;3730;50.856;12.776;2023-07-08T15:59:28;32.40;1.00
7378;DHT22;3730;50.856;12.776;2023-07-08T16:01:54;33.70;1.00
7378;DHT22;3730;50.856;12.776;2023-07-08T16:04:31;33.40;1.00
7378;DHT22;3730;50.856;12.776;2023-07-08T16:06:57;30.00;1.00
7378;DHT22;3730;50.856;12.776;2023-07-08T16:11:49;33.00;1.00
7378;DHT22;3730;50.856;12.776;2023-07-08T16:50:57;32.70;1.00
7378;DHT22;3730;50.856;12.776;2023-07-08T17:05:36;31.00;1.00
7378;DHT22;3730;50.856;12.776;2023-07-08T17:08:02;30.60;1.00
7378;DHT22;3730;50.856;12.776;2023-07-08T17:10:28;30.50;1.00
7378;DHT22;3730;50.856;12.776;2023-07-08T17:12:54;30.40;1.00
7378;DHT22;3730;50.856;12.776;2023-07-08T17:15:25;30.30;1.00
7378;DHT22;3730;50.856;12.776;2023-07-08T17:42:47;30.20;1.00
7378;DHT22;3730;50.856;12.776;2023-07-08T17:45:16;29.60;1.00
7378;DHT22;3730;50.856;12.776;2023-07-08T17:47:42;29.40;1.00
7378;DHT22;3730;50.856;12.776;2023-07-08T17:52:41;29.30;1.00
7378;DHT22;3730;50.856;12.776;2023-07-08T17:55:07;29.20;1.00
7378;DHT22;3730;50.856;12.776;2023-07-08T17:57:33;29.20;1.00
7378;DHT22;3730;50.856;12.776;2023-07-08T17:59:59;29.10;1.00
7378;DHT22;3730;50.856;12.776;2023-07-08T18:02:25;29.10;1.00
7378;DHT22;3730;50.856;12.776;2023-07-08T19:08:44;29.00;1.00
7378;DHT22;3730;50.856;12.776;2023-07-08T19:11:26;27.20;1.00
7378;DHT22;3730;50.856;12.776;2023-07-08T19:21:25;27.10;1.00
7378;DHT22;3730;50.856;12.776;2023-07-08T19:23:53;26.90;1.00
7378;DHT22;3730;50.856;12.776;2023-07-08T19:26:22;26.90;1.00
7378;DHT22;3730;50.856;12.776;2023-07-08T19:28:49;26.80;1.00
7378;DHT22;3730;50.856;12.776;2023-07-08T19:31:26;26.80;1.00
7378;DHT22;3730;50.856;12.776;2023-07-08T19:33:54;26.70;1.00
7378;DHT22;3730;50.856;12.776;2023-07-08T19:36:20;26.70;1.00
7378;DHT22;3730;50.856;12.776;2023-07-08T19:38:50;26.70;1.00
7378;DHT22;3730;50.856;12.776;2023-07-08T19:53:32;26.60;1.00
7378;DHT22;3730;50.856;12.776;2023-07-08T19:55:57;26.40;1.00
7378;DHT22;3730;50.856;12.776;2023-07-08T19:58:23;26.30;1.00
7378;DHT22;3730;50.856;12.776;2023-07-08T20:00:49;26.30;1.00
7378;DHT22;3730;50.856;12.776;2023-07-08T20:03:16;26.20;1.00
7378;DHT22;3730;50.856;12.776;2023-07-08T20:05:42;26.10;1.00
7378;DHT22;3730;50.856;12.776;2023-07-08T20:32:51;25.90;1.00
7378;DHT22;3730;50.856;12.776;2023-07-08T20:35:19;25.60;1.00
7378;DHT22;3730;50.856;12.776;2023-07-08T20:37:46;25.50;1.00
7378;DHT22;3730;50.856;12.776;2023-07-08T21:12:15;25.00;1.00
7378;DHT22;3730;50.856;12.776;2023-07-08T21:14:41;24.90;1.00
7378;DHT22;3730;50.856;12.776;2023-07-08T21:17:15;24.90;1.00
7378;DHT22;3730;50.856;12.776;2023-07-08T21:19:41;24.90;1.00
7378;DHT22;3730;50.856;12.776;2023-07-08T21:22:10;24.90;1.00
7378;DHT22;3730;50.856;12.776;2023-07-08T22:58:45;24.10;1.00
7378;DHT22;3730;50.856;12.776;2023-07-08T23:30:38;24.00;1.00
7378;DHT22;3730;50.856;12.776;2023-07-08T23:33:04;24.00;1.00
7378;DHT22;3730;50.856;12.776;2023-07-08T23:52:44;23.70;1.00
7378;DHT22;3730;50.856;12.776;2023-07-08T23:55:09;23.70;1.00
7378;DHT22;3730;50.856;12.776;2023-07-08T23:57:35;23.70;1.00
